Time;durP1;ratioP1;P1;durP2;ratioP2;P2;SDS_P1;SDS_P2;PMS_P1;PMS_P2;Temp;Humidity;BMP_temperature;BMP_pressure;BME280_temperature;BME280_humidity;BME280_pressure;Samples;Min_cycle;Max_cycle;Signal;HPM_P1;HPM_P2
2022/04/10 00:01:42;;;;;;;;;;;;;;;12.82;53.87;94046.06;5136740;27;967;-49
2022/04/10 00:04:08;;;;;;;;;;;;;;;12.54;54.62;94048.03;5136464;27;1999;-49
2022/04/10 00:06:34;;;;;;;;;;;;;;;12.51;54.24;94046.59;5136462;27;1033;-49
2022/04/10 00:09:00;;;;;;;;;;;;;;;12.53;53.98;94049.06;5136128;27;1087;-49
2022/04/10 00:11:26;;;;;;;;;;;;;;;12.32;54.66;94039.31;5136587;27;956;-49
2022/04/10 00:13:52;;;;;;;;;;;;;;;12.34;54.25;94026.53;5136211;27;961;-49
2022/04/10 00:16:18;;;;;;;;;;;;;;;12.52;53.62;94024.13;5136432;27;1035;-49
2022/04/10 00:18:44;;;;;;;;;;;;;;;12.64;52.95;94013.66;5136493;27;957;-49
2022/04/10 00:21:10;;;;;;;;;;;;;;;12.77;53.10;94020.91;5135586;27;1020;-49
2022/04/10 00:23:37;;;;;;;;;;;;;;;12.56;55.44;94005.75;5135887;27;1918;-49
2022/04/10 00:26:03;;;;;;;;;;;;;;;12.37;55.55;94008.19;5136213;27;1035;-49
2022/04/10 00:28:29;;;;;;;;;;;;;;;12.42;55.42;93997.69;5136051;27;1059;-49
2022/04/10 00:30:55;;;;;;;;;;;;;;;12.42;54.92;93994.19;5136163;27;1032;-49
2022/04/10 00:33:22;;;;;;;;;;;;;;;12.36;54.49;93998.47;5136367;27;1534;-49
2022/04/10 00:35:49;;;;;;;;;;;;;;;12.35;55.51;94001.34;5117703;27;1028;-49
2022/04/10 00:38:15;;;;;;;;;;;;;;;12.38;55.99;94006.34;5136287;27;1534;-49
2022/04/10 00:40:42;;;;;;;;;;;;;;;12.33;56.19;93995.38;5136714;27;1020;-49
2022/04/10 00:43:08;;;;;;;;;;;;;;;12.29;54.75;93994.94;5117420;27;2003;-49
2022/04/10 00:45:34;;;;;;;;;;;;;;;12.32;54.72;94002.59;5135875;27;930;-48
2022/04/10 00:48:01;;;;;;;;;;;;;;;12.53;54.41;93985.56;5136093;27;2573;-49
2022/04/10 00:50:27;;;;;;;;;;;;;;;12.63;55.09;93993.22;5121572;27;2045;-48
2022/04/10 00:52:53;;;;;;;;;;;;;;;12.46;55.18;93990.91;5078346;28;1425;-49
2022/04/10 00:55:21;;;;;;;;;;;;;;;12.24;55.99;93998.25;5076921;28;1096;-49
2022/04/10 00:57:48;;;;;;;;;;;;;;;12.10;55.97;94001.88;5094714;28;1107;-49
2022/04/10 01:00:15;;;;;;;;;;;;;;;12.11;55.98;93990.13;5094507;28;1017;-49
2022/04/10 01:02:41;;;;;;;;;;;;;;;12.13;55.56;93998.81;5094486;28;1918;-49
2022/04/10 01:05:08;;;;;;;;;;;;;;;12.39;54.93;93998.09;5094559;28;1550;-48
2022/04/10 01:07:35;;;;;;;;;;;;;;;12.40;54.18;93994.38;5076713;28;952;-49
2022/04/10 01:10:01;;;;;;;;;;;;;;;12.46;54.72;93984.69;5076088;28;2415;-49
2022/04/10 01:12:28;;;;;;;;;;;;;;;12.60;53.84;93991.78;5094577;28;1120;-49
2022/04/10 01:14:54;;;;;;;;;;;;;;;12.76;52.90;93997.78;5076649;28;1515;-49
2022/04/10 01:17:21;;;;;;;;;;;;;;;12.82;53.14;93997.78;5076396;28;1686;-49
2022/04/10 01:19:50;;;;;;;;;;;;;;;12.80;52.72;93999.84;5076305;28;1096;-49
2022/04/10 01:22:35;;;;;;;;;;;;;;;12.78;53.82;94001.09;5076505;28;1012;-49
2022/04/10 01:25:05;;;;;;;;;;;;;;;12.77;53.78;94012.88;5094289;28;1069;-49
2022/04/10 01:27:38;;;;;;;;;;;;;;;12.46;53.91;94007.00;5094070;28;1024;-48
2022/04/10 01:30:05;;;;;;;;;;;;;;;12.52;54.29;94005.38;5094471;28;1785;-49
2022/04/10 01:32:32;;;;;;;;;;;;;;;12.51;55.17;94011.75;5093808;28;1845;-49
2022/04/10 01:34:59;;;;;;;;;;;;;;;12.62;54.57;94005.81;5093733;28;1855;-49
2022/04/10 01:37:26;;;;;;;;;;;;;;;12.80;54.11;94012.44;5094095;28;1004;-49
2022/04/10 01:39:52;;;;;;;;;;;;;;;12.79;55.23;94008.13;5094226;28;963;-49
2022/04/10 01:42:19;;;;;;;;;;;;;;;12.63;55.70;94001.25;5093808;28;992;-48
2022/04/10 01:44:45;;;;;;;;;;;;;;;12.43;55.23;93993.16;5075464;28;1902;-49
2022/04/10 01:47:11;;;;;;;;;;;;;;;12.30;55.73;93986.72;5093815;28;980;-49
2022/04/10 01:49:37;;;;;;;;;;;;;;;12.45;55.08;93994.59;5100115;28;1274;-48
2022/04/10 01:52:04;;;;;;;;;;;;;;;12.57;55.32;93978.75;5125846;27;1220;-49
2022/04/10 01:54:31;;;;;;;;;;;;;;;12.55;55.33;93988.84;5134583;27;1035;-49
2022/04/10 01:56:57;;;;;;;;;;;;;;;12.44;55.72;93992.13;5134161;27;1842;-49
2022/04/10 01:59:23;;;;;;;;;;;;;;;12.42;56.48;93978.91;5134435;27;1025;-49
2022/04/10 02:01:49;;;;;;;;;;;;;;;12.62;55.00;93983.53;5134029;27;1024;-49
2022/04/10 02:04:15;;;;;;;;;;;;;;;12.74;54.31;93978.41;5134251;27;2006;-49
2022/04/10 02:06:41;;;;;;;;;;;;;;;12.70;54.48;93980.66;5134392;27;1015;-49
2022/04/10 02:09:07;;;;;;;;;;;;;;;12.76;54.01;93976.34;5134198;27;1028;-49
2022/04/10 02:11:33;;;;;;;;;;;;;;;12.70;54.82;93969.94;5134287;27;1049;-49
2022/04/10 02:13:59;;;;;;;;;;;;;;;12.49;56.25;93958.31;5133882;27;1086;-49
2022/04/10 02:16:26;;;;;;;;;;;;;;;12.36;55.28;93941.38;5133985;27;1032;-49
2022/04/10 02:18:51;;;;;;;;;;;;;;;12.33;54.89;93947.97;5134366;27;964;-49
2022/04/10 02:21:17;;;;;;;;;;;;;;;12.38;55.70;93958.09;5134237;28;953;-49
2022/04/10 02:23:44;;;;;;;;;;;;;;;12.44;55.94;93970.69;5134208;28;1905;-49
2022/04/10 02:26:10;;;;;;;;;;;;;;;12.60;55.20;93986.41;5134127;28;1029;-48
2022/04/10 02:28:36;;;;;;;;;;;;;;;12.72;55.15;93983.97;5134152;28;961;-49
2022/04/10 02:31:02;;;;;;;;;;;;;;;12.75;55.64;93980.88;5134228;28;1063;-49
2022/04/10 02:33:32;;;;;;;;;;;;;;;12.72;55.35;93975.09;5116345;28;952;-49
2022/04/10 02:35:58;;;;;;;;;;;;;;;12.52;56.51;93973.19;5115700;28;1067;-49
2022/04/10 02:38:25;;;;;;;;;;;;;;;12.50;56.01;93967.19;5115975;28;1480;-49
2022/04/10 02:40:51;;;;;;;;;;;;;;;12.44;56.94;93966.13;5115708;28;1523;-49
2022/04/10 02:43:17;;;;;;;;;;;;;;;12.38;57.38;93980.34;5134244;27;1980;-49
2022/04/10 02:45:44;;;;;;;;;;;;;;;12.38;57.15;93979.53;5138250;27;1048;-49
2022/04/10 02:48:10;;;;;;;;;;;;;;;12.34;57.52;93981.78;5138675;27;1336;-48
2022/04/10 02:50:37;;;;;;;;;;;;;;;12.44;57.29;93986.75;5119655;27;1111;-49
2022/04/10 02:53:03;;;;;;;;;;;;;;;12.45;57.16;93978.53;5117675;27;1232;-48
2022/04/10 02:55:29;;;;;;;;;;;;;;;12.40;57.03;93991.69;5117334;28;954;-48
2022/04/10 02:57:55;;;;;;;;;;;;;;;12.30;56.74;93983.22;5117057;28;1083;-48
2022/04/10 03:00:21;;;;;;;;;;;;;;;12.25;56.20;93980.28;5117154;28;1039;-48
2022/04/10 03:02:47;;;;;;;;;;;;;;;12.22;57.59;93988.75;5117147;28;1906;-48
2022/04/10 03:05:14;;;;;;;;;;;;;;;12.27;56.33;93981.78;5117104;28;1948;-48
2022/04/10 03:07:40;;;;;;;;;;;;;;;12.33;57.34;93984.66;5116860;28;1075;-48
2022/04/10 03:10:07;;;;;;;;;;;;;;;12.24;57.75;93979.47;5116934;28;1043;-48
2022/04/10 03:12:33;;;;;;;;;;;;;;;12.30;56.89;93986.72;5116681;28;1025;-48
2022/04/10 03:14:59;;;;;;;;;;;;;;;12.19;56.62;93989.13;5117094;28;1017;-49
2022/04/10 03:17:25;;;;;;;;;;;;;;;12.23;56.43;93983.16;5116924;28;1023;-48
2022/04/10 03:19:51;;;;;;;;;;;;;;;12.27;57.22;93987.13;5116708;28;1992;-48
2022/04/10 03:22:17;;;;;;;;;;;;;;;12.32;57.02;93994.56;5116896;28;1024;-48
2022/04/10 03:24:43;;;;;;;;;;;;;;;12.30;57.22;93994.75;5116540;28;1914;-48
2022/04/10 03:27:09;;;;;;;;;;;;;;;12.45;56.45;93997.28;5116492;28;1089;-48
2022/04/10 03:29:35;;;;;;;;;;;;;;;12.51;57.14;93992.97;5116668;28;1051;-48
2022/04/10 03:32:01;;;;;;;;;;;;;;;12.49;56.22;93993.16;5116289;28;1084;-48
2022/04/10 03:34:27;;;;;;;;;;;;;;;12.42;56.63;93976.22;5116547;28;1012;-48
2022/04/10 03:36:53;;;;;;;;;;;;;;;12.36;56.40;93990.44;5116546;28;1140;-48
2022/04/10 03:39:19;;;;;;;;;;;;;;;12.28;57.79;93994.13;5116506;28;964;-48
2022/04/10 03:41:45;;;;;;;;;;;;;;;12.24;57.78;93992.88;5115973;28;1028;-48
2022/04/10 03:44:11;;;;;;;;;;;;;;;12.21;57.50;93987.09;5116253;28;1905;-48
2022/04/10 03:46:37;;;;;;;;;;;;;;;12.15;57.12;93986.03;5116410;28;974;-48
2022/04/10 03:49:03;;;;;;;;;;;;;;;12.18;57.79;93990.16;5116271;28;1243;-48
2022/04/10 03:51:29;;;;;;;;;;;;;;;12.20;57.35;93990.78;5123262;27;1154;-48
2022/04/10 03:53:55;;;;;;;;;;;;;;;12.21;57.64;93987.91;5136813;27;1050;-48
2022/04/10 03:56:21;;;;;;;;;;;;;;;12.15;57.68;94004.78;5135288;27;1094;-48
2022/04/10 03:58:47;;;;;;;;;;;;;;;12.11;57.81;93992.81;5136735;27;968;-48
2022/04/10 04:01:13;;;;;;;;;;;;;;;12.04;57.54;93998.13;5136480;27;1015;-48
2022/04/10 04:03:39;;;;;;;;;;;;;;;11.98;57.86;93998.94;5136570;27;1906;-48
2022/04/10 04:06:05;;;;;;;;;;;;;;;12.11;57.92;93990.13;5136464;27;1036;-48
2022/04/10 04:08:31;;;;;;;;;;;;;;;12.04;57.34;93990.09;5136369;27;969;-48
2022/04/10 04:10:58;;;;;;;;;;;;;;;11.95;57.00;93991.31;5136596;27;933;-48
2022/04/10 04:13:25;;;;;;;;;;;;;;;11.93;58.36;93997.88;5136283;27;1003;-48
2022/04/10 04:15:51;;;;;;;;;;;;;;;11.90;58.32;93999.09;5136245;27;952;-48
2022/04/10 04:18:17;;;;;;;;;;;;;;;11.94;58.30;93999.53;5136096;27;1095;-48
2022/04/10 04:20:43;;;;;;;;;;;;;;;12.01;57.61;94003.06;5136413;27;1028;-49
2022/04/10 04:23:09;;;;;;;;;;;;;;;12.09;57.37;94006.41;5136026;27;1934;-48
2022/04/10 04:25:35;;;;;;;;;;;;;;;12.14;57.96;94005.81;5136360;27;1030;-48
2022/04/10 04:28:01;;;;;;;;;;;;;;;12.19;58.03;94010.56;5136136;27;1032;-48
2022/04/10 04:30:28;;;;;;;;;;;;;;;12.20;57.64;94010.38;5136664;27;1859;-48
2022/04/10 04:32:56;;;;;;;;;;;;;;;12.03;57.19;94009.88;5135823;27;1016;-48
2022/04/10 04:35:23;;;;;;;;;;;;;;;11.97;58.18;94023.22;5117660;27;1095;-48
2022/04/10 04:37:49;;;;;;;;;;;;;;;12.02;57.13;94020.78;5135595;27;1075;-48
2022/04/10 04:40:15;;;;;;;;;;;;;;;12.00;56.63;94023.66;5135838;27;991;-48
2022/04/10 04:42:42;;;;;;;;;;;;;;;12.08;56.26;94014.63;5135513;27;1025;-49
2022/04/10 04:45:08;;;;;;;;;;;;;;;12.22;56.26;94021.72;5135785;27;1886;-48
2022/04/10 04:47:34;;;;;;;;;;;;;;;12.23;56.69;94012.66;5135840;27;1032;-48
2022/04/10 04:50:00;;;;;;;;;;;;;;;12.18;56.98;94017.78;5125503;27;1651;-53
2022/04/10 04:52:26;;;;;;;;;;;;;;;12.33;56.71;94023.03;5099930;28;1221;-48
2022/04/10 04:54:52;;;;;;;;;;;;;;;12.21;56.64;94022.75;5094420;28;1265;-49
2022/04/10 04:57:18;;;;;;;;;;;;;;;12.32;55.82;94004.47;5094510;28;1049;-48
2022/04/10 04:59:44;;;;;;;;;;;;;;;12.42;55.34;93999.53;5094255;28;1084;-49
2022/04/10 05:02:11;;;;;;;;;;;;;;;12.36;55.64;94003.03;5094716;28;961;-48
2022/04/10 05:04:37;;;;;;;;;;;;;;;12.50;55.74;93994.00;5094165;28;1938;-48
2022/04/10 05:07:03;;;;;;;;;;;;;;;12.67;55.39;94003.34;5093870;28;1032;-48
2022/04/10 05:09:29;;;;;;;;;;;;;;;12.72;55.56;94001.91;5094379;28;966;-48
2022/04/10 05:11:55;;;;;;;;;;;;;;;12.83;56.10;94010.19;5093873;28;1017;-49
2022/04/10 05:14:21;;;;;;;;;;;;;;;12.96;56.22;94016.63;5094000;28;977;-48
2022/04/10 05:16:47;;;;;;;;;;;;;;;13.09;55.46;94022.84;5094323;28;1036;-48
2022/04/10 05:19:14;;;;;;;;;;;;;;;13.17;55.16;94023.69;5094232;28;1064;-48
2022/04/10 05:21:40;;;;;;;;;;;;;;;13.23;54.82;94020.97;5094091;28;1844;-48
2022/04/10 05:24:06;;;;;;;;;;;;;;;13.27;54.78;94024.09;5093575;28;1909;-47
2022/04/10 05:26:32;;;;;;;;;;;;;;;13.27;54.39;94027.59;5093971;28;1016;-48
2022/04/10 05:28:58;;;;;;;;;;;;;;;13.36;55.05;94024.75;5093648;28;973;-49
2022/04/10 05:31:24;;;;;;;;;;;;;;;13.44;54.81;94021.84;5094227;28;961;-48
2022/04/10 05:33:50;;;;;;;;;;;;;;;13.47;53.92;94024.97;5093611;28;1068;-49
2022/04/10 05:36:17;;;;;;;;;;;;;;;13.39;54.67;94025.19;5093859;28;1016;-49
2022/04/10 05:38:45;;;;;;;;;;;;;;;13.26;54.98;94028.63;5093586;28;1027;-49
2022/04/10 05:41:12;;;;;;;;;;;;;;;13.23;54.93;94029.03;5093623;28;1017;-49
2022/04/10 05:43:38;;;;;;;;;;;;;;;13.33;55.39;94036.72;5093179;28;1988;-50
2022/04/10 05:46:05;;;;;;;;;;;;;;;13.34;56.07;94029.50;5093913;28;1084;-50
2022/04/10 05:48:32;;;;;;;;;;;;;;;13.41;55.29;94027.63;5093709;28;1023;-49
2022/04/10 05:50:58;;;;;;;;;;;;;;;13.48;55.07;94031.97;5113953;27;1208;-49
2022/04/10 05:53:24;;;;;;;;;;;;;;;13.44;55.50;94033.41;5134229;27;999;-54
2022/04/10 05:55:50;;;;;;;;;;;;;;;13.46;55.33;94044.78;5134386;27;1056;-48
2022/04/10 05:58:16;;;;;;;;;;;;;;;13.43;57.29;94029.09;5134335;27;983;-49
2022/04/10 06:00:42;;;;;;;;;;;;;;;13.37;56.91;94029.91;5134609;27;974;-48
2022/04/10 06:03:08;;;;;;;;;;;;;;;13.28;57.95;94026.56;5134373;27;1984;-49
2022/04/10 06:05:34;;;;;;;;;;;;;;;13.25;58.17;94021.59;5134385;27;1048;-49
2022/04/10 06:08:00;;;;;;;;;;;;;;;13.44;57.02;94028.03;5134046;27;1015;-49
2022/04/10 06:10:26;;;;;;;;;;;;;;;13.48;58.14;94045.38;5134359;27;958;-48
2022/04/10 06:12:52;;;;;;;;;;;;;;;13.44;58.16;94051.38;5134146;27;956;-48
2022/04/10 06:15:18;;;;;;;;;;;;;;;13.39;57.98;94032.38;5134251;27;1010;-48
2022/04/10 06:17:45;;;;;;;;;;;;;;;13.28;58.11;94031.94;5133719;27;940;-48
2022/04/10 06:20:11;;;;;;;;;;;;;;;13.21;58.25;94033.78;5133825;27;1034;-48
2022/04/10 06:22:36;;;;;;;;;;;;;;;13.17;58.40;94032.53;5134160;28;1013;-49
2022/04/10 06:25:03;;;;;;;;;;;;;;;13.12;57.55;94028.81;5133747;28;1982;-49
2022/04/10 06:27:29;;;;;;;;;;;;;;;13.06;57.32;94027.78;5133915;28;973;-49
2022/04/10 06:29:55;;;;;;;;;;;;;;;13.13;57.61;94025.94;5134026;28;995;-49
2022/04/10 06:32:21;;;;;;;;;;;;;;;13.12;57.57;94026.94;5134047;28;1016;-48
2022/04/10 06:34:47;;;;;;;;;;;;;;;13.09;57.07;94028.19;5134026;28;1036;-49
2022/04/10 06:37:14;;;;;;;;;;;;;;;13.10;57.74;94029.03;5133897;28;1103;-54
2022/04/10 06:39:40;;;;;;;;;;;;;;;13.11;57.37;94029.84;5133807;28;1024;-49
2022/04/10 06:42:07;;;;;;;;;;;;;;;13.09;57.85;94030.06;5133852;28;1029;-49
2022/04/10 06:44:33;;;;;;;;;;;;;;;13.16;58.34;94033.56;5133899;28;1998;-48
2022/04/10 06:46:59;;;;;;;;;;;;;;;13.24;58.19;94032.53;5134003;28;1059;-49
2022/04/10 06:49:25;;;;;;;;;;;;;;;13.36;58.21;94027.44;5129011;28;1527;-48
2022/04/10 06:51:51;;;;;;;;;;;;;;;13.46;58.19;94023.28;5104323;28;1209;-48
2022/04/10 06:54:17;;;;;;;;;;;;;;;13.60;57.16;94025.97;5075848;28;1084;-49
2022/04/10 06:56:44;;;;;;;;;;;;;;;13.67;56.37;94027.63;5092769;28;929;-49
2022/04/10 06:59:10;;;;;;;;;;;;;;;13.70;56.57;94029.09;5092873;28;1197;-49
2022/04/10 07:01:36;;;;;;;;;;;;;;;13.76;54.56;94028.25;5092963;28;1044;-49
2022/04/10 07:04:02;;;;;;;;;;;;;;;14.02;53.69;94031.94;5092964;28;1983;-48
2022/04/10 07:06:28;;;;;;;;;;;;;;;14.16;52.97;94024.69;5092618;28;1009;-49
2022/04/10 07:08:54;;;;;;;;;;;;;;;14.10;54.42;94029.03;5092767;28;1013;-49
2022/04/10 07:11:21;;;;;;;;;;;;;;;14.12;54.69;94036.88;5092497;28;1083;-48
2022/04/10 07:13:47;;;;;;;;;;;;;;;13.89;56.44;94040.00;5074822;28;957;-49
2022/04/10 07:16:13;;;;;;;;;;;;;;;13.67;56.92;94045.59;5092770;28;961;-48
2022/04/10 07:18:39;;;;;;;;;;;;;;;13.52;56.83;94045.00;5074838;28;1104;-49
2022/04/10 07:21:05;;;;;;;;;;;;;;;13.44;56.60;94046.03;5092491;28;1024;-49
2022/04/10 07:23:43;;;;;;;;;;;;;;;13.45;56.53;94050.38;5092865;28;1993;-49
2022/04/10 07:26:10;;;;;;;;;;;;;;;13.47;56.11;94057.19;5092575;28;1029;-49
2022/04/10 07:28:37;;;;;;;;;;;;;;;13.61;54.67;94052.63;5092921;28;992;-48
2022/04/10 07:31:04;;;;;;;;;;;;;;;13.58;54.78;94058.44;5077564;28;993;-48
2022/04/10 07:33:30;;;;;;;;;;;;;;;13.51;55.23;94059.44;5096350;28;966;-49
2022/04/10 07:35:56;;;;;;;;;;;;;;;13.41;55.01;94074.13;5096278;28;1215;-49
2022/04/10 07:38:22;;;;;;;;;;;;;;;13.40;55.60;94068.94;5096086;28;1032;-48
2022/04/10 07:40:48;;;;;;;;;;;;;;;13.40;54.93;94063.56;5095820;28;1048;-48
2022/04/10 07:43:14;;;;;;;;;;;;;;;13.46;55.03;94062.75;5095746;28;1993;-49
2022/04/10 07:48:25;;;;;;;;;;;;;;;13.55;54.96;94074.13;5078250;28;980;-49
2022/04/10 07:50:51;;;;;;;;;;;;;;;13.47;54.99;94080.53;5114159;27;1559;-49
2022/04/10 07:53:17;;;;;;;;;;;;;;;13.47;55.31;94088.59;5136921;27;942;-48
2022/04/10 07:55:43;;;;;;;;;;;;;;;13.39;55.34;94089.59;5136639;27;1872;-48
2022/04/10 07:58:09;;;;;;;;;;;;;;;13.37;56.22;94088.97;5137001;27;1104;-49
2022/04/10 08:00:35;;;;;;;;;;;;;;;13.28;56.84;94085.63;5136753;27;951;-49
2022/04/10 08:03:01;;;;;;;;;;;;;;;13.21;57.20;94092.00;5136736;27;1909;-49
2022/04/10 08:05:27;;;;;;;;;;;;;;;13.21;57.34;94083.97;5136502;27;1015;-49
2022/04/10 08:07:54;;;;;;;;;;;;;;;13.20;56.96;94093.03;5136277;27;949;-49
2022/04/10 08:10:21;;;;;;;;;;;;;;;13.13;57.92;94097.53;5136686;27;1181;-49
2022/04/10 08:12:47;;;;;;;;;;;;;;;13.13;58.54;94097.53;5136303;27;979;-49
2022/04/10 08:15:13;;;;;;;;;;;;;;;13.11;59.29;94102.28;5136599;27;1031;-48
2022/04/10 08:17:40;;;;;;;;;;;;;;;12.98;59.80;94111.16;5136096;27;1040;-48
2022/04/10 08:20:07;;;;;;;;;;;;;;;12.91;60.16;94111.09;5136253;27;1040;-48
2022/04/10 08:22:33;;;;;;;;;;;;;;;12.88;61.23;94115.03;5135856;27;1914;-49
2022/04/10 08:25:04;;;;;;;;;;;;;;;12.74;61.79;94116.00;5136355;27;1933;-48
2022/04/10 08:27:30;;;;;;;;;;;;;;;12.71;62.67;94111.03;5136240;27;1003;-49
2022/04/10 08:29:56;;;;;;;;;;;;;;;12.67;63.15;94115.13;5136027;27;1108;-50
2022/04/10 08:32:22;;;;;;;;;;;;;;;12.68;63.29;94116.78;5135843;27;1032;-49
2022/04/10 08:34:49;;;;;;;;;;;;;;;12.68;63.34;94114.94;5135892;27;1056;-49
2022/04/10 08:37:14;;;;;;;;;;;;;;;12.70;63.29;94126.28;5135930;27;1059;-48
2022/04/10 08:39:40;;;;;;;;;;;;;;;12.72;63.40;94119.91;5117999;27;992;-49
2022/04/10 08:42:08;;;;;;;;;;;;;;;12.83;63.73;94120.16;5134885;27;992;-49
2022/04/10 08:44:34;;;;;;;;;;;;;;;12.90;62.81;94120.19;5135750;27;1926;-49
2022/04/10 08:47:00;;;;;;;;;;;;;;;12.95;63.22;94123.09;5135504;27;1040;-49
2022/04/10 08:49:31;;;;;;;;;;;;;;;12.84;63.45;94129.03;5130389;27;1738;-49
2022/04/10 08:51:58;;;;;;;;;;;;;;;12.84;63.54;94126.34;5103759;28;1208;-49
2022/04/10 08:54:24;;;;;;;;;;;;;;;12.93;63.93;94129.69;5094982;28;958;-49
2022/04/10 08:56:51;;;;;;;;;;;;;;;12.95;63.85;94139.19;5094581;28;1092;-49
2022/04/10 08:59:17;;;;;;;;;;;;;;;12.88;64.35;94144.53;5094836;28;1036;-49
2022/04/10 09:01:43;;;;;;;;;;;;;;;12.92;64.66;94146.81;5094622;28;996;-48
2022/04/10 09:04:09;;;;;;;;;;;;;;;12.80;65.32;94154.59;5094366;28;1905;-48
2022/04/10 09:06:38;;;;;;;;;;;;;;;12.69;65.78;94145.25;5094202;28;1092;-49
2022/04/10 09:09:11;;;;;;;;;;;;;;;12.64;66.50;94153.91;5094285;28;1025;-49
2022/04/10 09:11:39;;;;;;;;;;;;;;;12.60;66.50;94152.66;5094478;28;1065;-49
2022/04/10 09:14:05;;;;;;;;;;;;;;;12.47;67.70;94163.28;5094164;28;1022;-48
2022/04/10 09:16:32;;;;;;;;;;;;;;;12.36;68.43;94166.53;5094217;28;954;-49
2022/04/10 09:19:01;;;;;;;;;;;;;;;12.11;69.61;94172.31;5094119;28;1041;-48
2022/04/10 09:21:30;;;;;;;;;;;;;;;12.08;70.20;94180.75;5094040;28;1103;-48
2022/04/10 09:24:00;;;;;;;;;;;;;;;12.01;70.64;94174.50;5093912;28;1894;-49
2022/04/10 09:26:27;;;;;;;;;;;;;;;11.90;71.68;94173.19;5094068;28;1069;-48
2022/04/10 09:28:54;;;;;;;;;;;;;;;11.91;72.08;94177.50;5094005;28;1126;-50
2022/04/10 09:31:30;;;;;;;;;;;;;;;11.85;72.19;94176.41;5093965;28;937;-48
2022/04/10 09:34:03;;;;;;;;;;;;;;;11.73;71.77;94177.94;5093951;28;966;-48
2022/04/10 09:36:29;;;;;;;;;;;;;;;11.80;70.89;94188.69;5093995;28;1062;-47
2022/04/10 09:38:55;;;;;;;;;;;;;;;11.80;70.58;94181.53;5093900;28;1056;-48
2022/04/10 09:41:21;;;;;;;;;;;;;;;11.85;71.40;94183.59;5094115;28;1202;-50
2022/04/10 09:43:47;;;;;;;;;;;;;;;11.87;72.81;94189.59;5093247;28;1910;-48
2022/04/10 09:46:13;;;;;;;;;;;;;;;11.89;72.18;94182.19;5093661;28;1008;-48
2022/04/10 09:48:39;;;;;;;;;;;;;;;12.01;70.98;94179.84;5093499;28;1071;-48
2022/04/10 09:51:05;;;;;;;;;;;;;;;12.15;70.33;94186.16;5115780;27;1134;-50
2022/04/10 09:53:32;;;;;;;;;;;;;;;12.15;69.36;94186.97;5134564;27;1009;-48
2022/04/10 09:56:02;;;;;;;;;;;;;;;12.26;69.07;94185.63;5134372;27;1079;-48
2022/04/10 09:58:29;;;;;;;;;;;;;;;12.17;69.05;94200.19;5134255;27;1031;-48
2022/04/10 10:00:56;;;;;;;;;;;;;;;12.05;68.80;94202.56;5134616;27;964;-47
2022/04/10 10:03:22;;;;;;;;;;;;;;;11.87;70.48;94198.44;5134065;27;1938;-48
2022/04/10 10:05:52;;;;;;;;;;;;;;;11.84;69.75;94196.19;5134731;27;957;-48
2022/04/10 10:08:19;;;;;;;;;;;;;;;11.75;68.57;94202.69;5115921;27;1040;-48
2022/04/10 10:10:45;;;;;;;;;;;;;;;11.69;67.95;94209.63;5134077;27;1169;-48
2022/04/10 10:13:14;;;;;;;;;;;;;;;11.66;67.50;94201.16;5134113;27;960;-48
2022/04/10 10:15:41;;;;;;;;;;;;;;;11.51;67.98;94204.72;5134166;27;1048;-48
2022/04/10 10:18:08;;;;;;;;;;;;;;;11.49;68.77;94204.06;5134158;27;977;-48
2022/04/10 10:20:34;;;;;;;;;;;;;;;11.33;67.71;94202.47;5134084;27;1082;-48
2022/04/10 10:23:01;;;;;;;;;;;;;;;11.14;67.67;94201.22;5133885;28;1918;-48
2022/04/10 10:25:27;;;;;;;;;;;;;;;10.96;68.62;94205.31;5134121;28;1012;-48
2022/04/10 10:28:12;;;;;;;;;;;;;;;10.82;70.48;94206.97;5133767;28;1003;-49
2022/04/10 10:30:44;;;;;;;;;;;;;;;10.65;68.93;94212.50;5134194;28;960;-49
2022/04/10 10:33:18;;;;;;;;;;;;;;;10.51;69.50;94219.53;5133837;28;1029;-48
2022/04/10 10:35:47;;;;;;;;;;;;;;;10.60;68.52;94219.41;5134059;28;1024;-48
2022/04/10 10:38:20;;;;;;;;;;;;;;;10.47;68.84;94230.75;5133748;28;1024;-49
2022/04/10 10:40:46;;;;;;;;;;;;;;;10.32;70.32;94233.38;5134155;28;1040;-49
2022/04/10 10:43:17;;;;;;;;;;;;;;;10.25;70.89;94233.28;5133681;28;1910;-49
2022/04/10 10:45:43;;;;;;;;;;;;;;;10.35;71.17;94236.53;5134313;28;1075;-49
2022/04/10 10:48:38;;;;;;;;;;;;;;;10.60;69.99;94233.59;5133761;28;968;-50
2022/04/10 10:51:10;;;;;;;;;;;;;;;10.55;70.09;94236.03;5112714;28;1278;-50
2022/04/10 10:53:43;;;;;;;;;;;;;;;10.46;71.35;94237.94;5113461;28;1039;-50
2022/04/10 10:56:28;;;;;;;;;;;;;;;10.29;72.46;94247.09;5113243;28;1000;-49
2022/04/10 10:58:55;;;;;;;;;;;;;;;9.92;72.04;94254.94;5113026;28;972;-50
2022/04/10 11:01:26;;;;;;;;;;;;;;;9.93;69.61;94261.09;5113219;28;1056;-50
2022/04/10 11:03:59;;;;;;;;;;;;;;;9.93;68.74;94264.59;5094642;28;1910;-50
2022/04/10 11:06:27;;;;;;;;;;;;;;;9.74;69.63;94255.22;5117488;28;1056;-48
2022/04/10 11:08:53;;;;;;;;;;;;;;;9.76;69.40;94265.72;5117182;28;972;-49
2022/04/10 11:11:19;;;;;;;;;;;;;;;9.67;69.18;94269.44;5117373;28;1023;-50
2022/04/10 11:13:46;;;;;;;;;;;;;;;9.51;70.24;94251.72;5116428;28;1020;-49
2022/04/10 11:16:13;;;;;;;;;;;;;;;9.55;69.64;94258.34;5117208;28;1055;-50
2022/04/10 11:18:53;;;;;;;;;;;;;;;9.39;69.68;94256.63;5116802;28;1313;-49
2022/04/10 11:21:20;;;;;;;;;;;;;;;9.53;69.42;94253.19;5117204;28;1055;-49
2022/04/10 11:23:47;;;;;;;;;;;;;;;9.65;69.51;94261.59;5116903;28;1987;-49
2022/04/10 11:26:14;;;;;;;;;;;;;;;9.62;70.66;94264.66;5116766;28;1006;-49
2022/04/10 11:28:55;;;;;;;;;;;;;;;9.59;71.15;94265.00;5116687;28;1858;-49
2022/04/10 11:31:27;;;;;;;;;;;;;;;9.51;72.04;94268.53;5116669;28;1051;-49
2022/04/10 11:33:55;;;;;;;;;;;;;;;9.43;73.13;94271.28;5116317;28;1075;-49
2022/04/10 11:36:21;;;;;;;;;;;;;;;9.33;71.92;94279.50;5116885;28;957;-49
2022/04/10 11:39:19;;;;;;;;;;;;;;;9.30;70.68;94285.19;5116390;28;1008;-49
2022/04/10 11:41:46;;;;;;;;;;;;;;;9.16;70.47;94291.22;5071159;28;1162;-50
2022/04/10 11:44:12;;;;;;;;;;;;;;;9.25;68.69;94297.38;5116473;28;1909;-49
2022/04/10 11:46:38;;;;;;;;;;;;;;;9.11;68.68;94293.59;5116495;28;1068;-49
2022/04/10 11:49:04;;;;;;;;;;;;;;;8.80;69.52;94297.03;5115968;28;1835;-50
2022/04/10 11:51:30;;;;;;;;;;;;;;;8.60;69.14;94308.06;5123308;27;1106;-50
2022/04/10 11:54:00;;;;;;;;;;;;;;;8.52;70.28;94304.59;5118616;27;1977;-49
2022/04/10 11:56:26;;;;;;;;;;;;;;;8.46;71.49;94310.59;5136802;27;1023;-49
2022/04/10 11:58:52;;;;;;;;;;;;;;;8.32;70.80;94307.56;5136806;27;1036;-50
2022/04/10 12:01:18;;;;;;;;;;;;;;;8.22;71.78;94314.91;5136494;27;1016;-50
2022/04/10 12:03:46;;;;;;;;;;;;;;;8.28;71.63;94322.22;5136381;27;1906;-50
2022/04/10 12:06:19;;;;;;;;;;;;;;;8.30;71.72;94327.41;5118011;27;1969;-50
2022/04/10 12:08:45;;;;;;;;;;;;;;;8.32;70.77;94328.88;5136539;27;1013;-49
2022/04/10 12:11:11;;;;;;;;;;;;;;;8.27;72.25;94333.03;5136237;27;1016;-50
2022/04/10 12:13:37;;;;;;;;;;;;;;;8.12;72.17;94339.06;5136358;27;989;-50
2022/04/10 12:16:11;;;;;;;;;;;;;;;7.93;72.72;94342.88;5134965;27;1070;-51
2022/04/10 12:18:48;;;;;;;;;;;;;;;7.99;71.57;94358.16;5136530;27;987;-50
2022/04/10 12:21:14;;;;;;;;;;;;;;;8.12;70.59;94362.16;5136497;27;1016;-49
2022/04/10 12:23:40;;;;;;;;;;;;;;;7.93;71.66;94369.47;5136368;27;1985;-50
2022/04/10 12:26:06;;;;;;;;;;;;;;;8.05;72.09;94371.81;5135897;27;1016;-49
2022/04/10 12:28:32;;;;;;;;;;;;;;;8.01;72.78;94371.31;5136429;27;1028;-50
2022/04/10 12:30:59;;;;;;;;;;;;;;;8.01;71.81;94371.31;5135841;27;1016;-50
2022/04/10 12:33:25;;;;;;;;;;;;;;;8.06;71.28;94376.13;5136211;27;1056;-50
2022/04/10 12:35:51;;;;;;;;;;;;;;;8.01;72.49;94380.13;5135706;27;1044;-50
2022/04/10 12:38:17;;;;;;;;;;;;;;;7.95;73.30;94375.47;5135972;27;1020;-50
2022/04/10 12:40:43;;;;;;;;;;;;;;;7.88;72.38;94382.44;5136025;27;1052;-50
2022/04/10 12:43:10;;;;;;;;;;;;;;;7.91;72.39;94386.59;5136090;27;1910;-50
2022/04/10 12:45:39;;;;;;;;;;;;;;;7.79;72.55;94396.72;5135648;27;1082;-50
2022/04/10 12:48:21;;;;;;;;;;;;;;;7.75;72.93;94414.00;5117362;27;1016;-49
2022/04/10 12:51:02;;;;;;;;;;;;;;;7.86;72.25;94407.56;5117669;27;1345;-50
2022/04/10 12:53:28;;;;;;;;;;;;;;;7.76;72.13;94418.34;5095023;28;972;-50
2022/04/10 12:55:54;;;;;;;;;;;;;;;7.63;71.42;94422.28;5094366;28;1072;-51
2022/04/10 12:58:20;;;;;;;;;;;;;;;7.55;71.36;94424.94;5094594;28;1036;-51
2022/04/10 13:00:46;;;;;;;;;;;;;;;7.43;71.64;94428.84;5094296;28;1033;-51
2022/04/10 13:03:19;;;;;;;;;;;;;;;7.20;71.21;94436.53;5094607;28;1913;-50